Woodstock, Canada
Current Conditions -  °F | °C
As of 4:53 PM on Tuesday 27 Jan 2015 (Local Time) from KHUL Reporting Station
Light Snow Light Snow  
Wind Chill: -25°   Ceiling: 1300
Heat Index: -14°   Visibility: 0.5mi
Dew Point: -16°   Wind: 20mph
Humidity: 84%   Direction: 10°N
Pressure: 29.76"   Gusts: NA
Location:  46.15°N, 67.58°W
Report Text: KHUL 272053Z AUTO 01017KT 1/2SM -SN FZFG VV013 M14/M16 A2976 RMK AO2 PK WND 02026/1959 SLP090 P0001 60001 T11391161 56025
Loading
Personal Weather Stations






























Interactive Weather Map New forecast layout! Learn more

10-Day Weather Forecast

Advertisements
Track Severe Weather on mobile